Manson, North Carolina
Current Conditions -  °F | °C
As of 2:55 PM on Tuesday 21 Oct 2014 (Local Time) from KHNZ Reporting Station
Broken Clouds Broken Clouds  
Wind Chill: 69°   Ceiling: 5000
Heat Index: 69°   Visibility: 10mi
Dew Point: 50°   Wind: 6mph
Humidity: 51%   Direction: 270°W
Pressure: 29.84"   Gusts: NA
Location:  36.42°N, 78.28°W
Report Text: KHNZ 211855Z AUTO 27005KT 10SM SCT045 BKN050 BKN060 21/10 A2984 RMK AO2 T02050099
Loading
Personal Weather Stations






























Interactive Weather Map
Tropical Storm Tracking
New forecast layout! Learn more

10-Day Weather Forecast

Advertisements
Track Severe Weather on mobile